createdAt,value
2019-04-23T00:00:37.563Z,68.74
2019-04-23T00:06:15.173Z,70.09
2019-04-23T00:11:39.406Z,69.03
2019-04-23T00:17:17.963Z,69.23
2019-04-23T00:22:34.774Z,70.92
2019-04-23T00:28:21.604Z,72.30
2019-04-23T00:45:39.813Z,70.40
2019-04-23T00:50:58.563Z,71.60
2019-04-23T01:08:38.837Z,73.39
2019-04-23T01:14:16.299Z,73.16
2019-04-23T01:25:51.343Z,74.07
2019-04-23T01:42:29.337Z,74.71
2019-04-23T01:47:50.086Z,75.16
2019-04-23T01:53:16.482Z,73.89
2019-04-23T01:59:24.709Z,76.65
2019-04-23T02:05:58.875Z,76.18
2019-04-23T02:12:11.636Z,76.52
2019-04-23T02:17:25.479Z,77.61
2019-04-23T02:30:35.213Z,78.62
2019-04-23T02:40:30.556Z,77.70
2019-04-23T02:45:59.036Z,80.21
2019-04-23T03:02:17.594Z,78.46
2019-04-23T03:12:18.537Z,79.48
2019-04-23T03:17:59.137Z,79.72
2019-04-23T03:39:56.667Z,80.23
2019-04-23T03:46:24.299Z,79.14
2019-04-23T03:58:06.376Z,80.61
2019-04-23T04:03:10.128Z,79.45
2019-04-23T04:14:38.544Z,79.62
2019-04-23T04:19:09.265Z,77.58
2019-04-23T04:41:15.896Z,76.70
2019-04-23T04:57:35.361Z,75.50
2019-04-23T05:03:01.127Z,77.61
2019-04-23T05:10:09.313Z,78.06
2019-04-23T05:19:13.767Z,77.10
2019-04-23T05:24:14.858Z,76.81
2019-04-23T05:29:34.145Z,74.58
2019-04-23T05:34:57.625Z,78.02
2019-04-23T06:31:40.812Z,73.58
2019-04-23T06:36:37.130Z,74.44
2019-04-23T06:46:39.533Z,73.31
2019-04-23T06:56:26.845Z,71.19
2019-04-23T07:01:17.693Z,71.76
2019-04-23T07:11:34.149Z,69.07
2019-04-23T07:16:09.492Z,68.27
2019-04-23T07:26:25.742Z,63.94
2019-04-23T07:31:14.118Z,64.73
2019-04-23T07:36:19.357Z,62.60
2019-04-23T07:41:24.981Z,63.05
2019-04-23T07:46:33.690Z,59.53
2019-04-23T07:51:19.592Z,58.23
2019-04-23T07:56:21.378Z,58.83
2019-04-23T08:01:14.128Z,56.38
2019-04-23T08:06:13.176Z,54.93
2019-04-23T08:16:23.338Z,56.55
2019-04-23T08:21:10.344Z,56.92
2019-04-23T08:26:35.822Z,55.72
2019-04-23T08:31:32.271Z,56.00
2019-04-23T08:36:29.547Z,50.97
2019-04-23T08:46:46.678Z,49.57
2019-04-23T08:51:54.760Z,48.30
2019-04-23T08:56:31.812Z,49.23
2019-04-23T09:01:41.024Z,49.49
2019-04-23T09:06:22.208Z,51.61
2019-04-23T09:11:35.864Z,49.04
2019-04-23T09:16:28.687Z,47.54
2019-04-23T09:26:08.900Z,47.58
2019-04-23T09:36:51.618Z,46.27
2019-04-23T09:42:02.297Z,49.28
2019-04-23T09:47:24.563Z,46.36
2019-04-23T09:52:07.350Z,48.75
2019-04-23T09:56:57.373Z,45.02
2019-04-23T10:01:49.945Z,44.15
2019-04-23T10:06:36.492Z,46.37
2019-04-23T10:11:28.524Z,44.48
2019-04-23T10:16:27.659Z,45.90
2019-04-23T10:21:21.757Z,46.04
2019-04-23T10:26:17.471Z,45.40
2019-04-23T10:31:14.532Z,41.62
2019-04-23T10:36:13.697Z,42.81
2019-04-23T10:41:09.789Z,43.26
2019-04-23T10:46:43.006Z,44.10
2019-04-23T10:51:59.774Z,42.85
2019-04-23T10:56:56.992Z,39.51
2019-04-23T11:01:53.043Z,41.19
2019-04-23T11:06:50.430Z,41.53
2019-04-23T11:11:53.868Z,39.76
2019-04-23T11:16:58.160Z,36.89
2019-04-23T11:21:58.235Z,35.90
2019-04-23T11:26:49.533Z,36.77
2019-04-23T11:31:59.019Z,36.19
2019-04-23T11:41:53.024Z,36.98
2019-04-23T11:57:07.975Z,35.94
2019-04-23T12:07:06.235Z,36.76
2019-04-23T12:17:13.359Z,38.36
2019-04-23T12:22:02.761Z,36.55
2019-04-23T12:32:30.904Z,36.54
2019-04-23T12:37:17.641Z,37.48
2019-04-23T12:42:27.847Z,36.95
2019-04-23T12:47:14.470Z,39.70
2019-04-23T12:52:12.886Z,38.47
2019-04-23T13:02:11.403Z,35.63
2019-04-23T13:06:58.335Z,36.83
2019-04-23T13:12:04.945Z,35.43
2019-04-23T13:17:05.528Z,36.78
2019-04-23T13:26:47.232Z,36.29
2019-04-23T13:31:39.917Z,36.88
2019-04-23T13:36:46.789Z,35.81
2019-04-23T13:41:42.095Z,35.47
2019-04-23T13:46:35.670Z,36.37
2019-04-23T13:52:02.416Z,35.59
2019-04-23T13:57:03.233Z,36.22
2019-04-23T14:01:33.548Z,35.60
2019-04-23T14:06:36.774Z,36.75
2019-04-23T14:11:30.856Z,35.67
2019-04-23T14:16:34.149Z,32.67
2019-04-23T14:26:33.997Z,36.11
2019-04-23T14:31:17.463Z,34.85
2019-04-23T14:36:36.396Z,35.88
2019-04-23T14:51:22.995Z,33.26
2019-04-23T15:06:20.147Z,36.51
2019-04-23T15:11:23.888Z,34.80
2019-04-23T15:16:20.871Z,34.27
2019-04-23T15:21:28.355Z,34.20
2019-04-23T15:27:02.535Z,35.06
2019-04-23T15:31:17.950Z,36.31
2019-04-23T15:36:16.096Z,37.01
2019-04-23T15:41:01.817Z,37.11
2019-04-23T15:46:02.923Z,37.08
2019-04-23T15:50:52.437Z,36.97
2019-04-23T15:55:56.155Z,35.86
2019-04-23T16:05:52.985Z,38.66
2019-04-23T16:11:36.459Z,38.12
2019-04-23T16:16:26.156Z,38.93
2019-04-23T16:21:20.669Z,39.90
2019-04-23T16:26:20.538Z,40.07
2019-04-23T16:31:26.422Z,40.73
2019-04-23T16:41:12.905Z,40.75
2019-04-23T16:46:07.128Z,40.22
2019-04-23T16:51:16.714Z,40.45
2019-04-23T16:56:13.501Z,39.74
2019-04-23T17:01:03.368Z,38.85
2019-04-23T17:11:02.756Z,40.39
2019-04-23T17:16:02.657Z,40.46
2019-04-23T17:20:53.050Z,41.67
2019-04-23T17:25:48.783Z,44.68
2019-04-23T17:31:03.981Z,46.20
2019-04-23T17:36:22.398Z,48.07
2019-04-23T17:41:15.700Z,48.79
2019-04-23T17:46:05.289Z,45.11
2019-04-23T17:51:11.035Z,42.01
2019-04-23T17:56:29.003Z,41.44
2019-04-23T18:06:21.640Z,41.20
2019-04-23T18:11:13.056Z,41.08
2019-04-23T18:16:09.611Z,41.01
2019-04-23T18:26:23.187Z,44.13
2019-04-23T18:31:23.434Z,44.60
2019-04-23T18:36:21.734Z,44.34
2019-04-23T18:41:10.564Z,46.31
2019-04-23T18:46:22.931Z,48.09
2019-04-23T18:51:34.146Z,46.84
2019-04-23T19:01:12.630Z,49.46
2019-04-23T19:06:32.525Z,50.87
2019-04-23T19:17:07.269Z,54.77
2019-04-23T19:22:09.088Z,52.95
2019-04-23T19:31:50.647Z,52.82
2019-04-23T19:41:54.221Z,54.86
2019-04-23T19:46:48.944Z,54.09
2019-04-23T19:51:44.279Z,53.29
2019-04-23T19:56:37.792Z,54.06
2019-04-23T20:11:27.819Z,46.68
2019-04-23T20:21:13.500Z,45.73
2019-04-23T20:26:17.582Z,45.64
2019-04-23T20:32:57.588Z,45.19
2019-04-23T20:36:58.083Z,44.69
2019-04-23T20:42:39.081Z,48.24
2019-04-23T20:47:48.622Z,50.28
2019-04-23T20:53:06.562Z,51.35
2019-04-23T21:27:01.688Z,57.96
2019-04-23T21:31:55.602Z,55.59
2019-04-23T21:37:14.169Z,55.35
2019-04-23T21:42:11.826Z,57.06
2019-04-23T21:47:01.003Z,58.35
2019-04-23T21:52:04.972Z,57.49
2019-04-23T21:56:55.333Z,58.08
2019-04-23T22:01:53.776Z,56.83
2019-04-23T22:06:54.069Z,56.78
2019-04-23T22:16:57.970Z,57.91
2019-04-23T22:21:50.229Z,58.93
2019-04-23T22:36:49.746Z,58.31
2019-04-23T22:56:35.539Z,59.56
2019-04-23T23:01:56.939Z,61.81
2019-04-23T23:06:46.605Z,63.49
2019-04-23T23:11:22.498Z,63.60
2019-04-23T23:21:24.189Z,64.02
2019-04-23T23:26:20.305Z,62.33
2019-04-23T23:36:24.472Z,63.66
2019-04-23T23:56:12.472Z,65.79
